sensor_id;sensor_type;location;lat;lon;timestamp;pressure;altitude;pressure_sealevel;temperature;humidity
74403;BME280;62837;51.082;13.744;2024-01-16T00:02:21;99003.92;;;0.78;79.14
74403;BME280;62837;51.082;13.744;2024-01-16T00:04:52;99002.81;;;0.79;79.58
74403;BME280;62837;51.082;13.744;2024-01-16T00:07:23;99003.77;;;0.80;79.49
74403;BME280;62837;51.082;13.744;2024-01-16T00:09:54;99006.08;;;0.80;79.40
74403;BME280;62837;51.082;13.744;2024-01-16T00:12:24;99001.98;;;0.82;79.58
74403;BME280;62837;51.082;13.744;2024-01-16T00:14:56;99003.83;;;0.84;79.16
74403;BME280;62837;51.082;13.744;2024-01-16T00:17:26;99008.55;;;0.87;78.86
74403;BME280;62837;51.082;13.744;2024-01-16T00:19:57;99010.95;;;0.86;78.39
74403;BME280;62837;51.082;13.744;2024-01-16T00:22:30;99013.05;;;0.85;77.89
74403;BME280;62837;51.082;13.744;2024-01-16T00:25:01;99012.94;;;0.87;77.97
74403;BME280;62837;51.082;13.744;2024-01-16T00:27:32;99017.73;;;0.87;77.73
74403;BME280;62837;51.082;13.744;2024-01-16T00:30:03;99036.03;;;0.85;76.98
74403;BME280;62837;51.082;13.744;2024-01-16T00:32:36;99034.86;;;0.83;78.22
74403;BME280;62837;51.082;13.744;2024-01-16T00:35:08;99038.63;;;0.75;80.73
74403;BME280;62837;51.082;13.744;2024-01-16T00:37:39;99040.91;;;0.67;81.79
74403;BME280;62837;51.082;13.744;2024-01-16T00:40:11;99045.54;;;0.64;82.09
74403;BME280;62837;51.082;13.744;2024-01-16T00:42:42;99043.66;;;0.63;82.12
74403;BME280;62837;51.082;13.744;2024-01-16T00:45:13;99037.27;;;0.61;82.33
74403;BME280;62837;51.082;13.744;2024-01-16T00:47:44;99042.39;;;0.62;82.80
74403;BME280;62837;51.082;13.744;2024-01-16T00:50:16;99042.02;;;0.61;82.14
74403;BME280;62837;51.082;13.744;2024-01-16T00:52:47;99043.58;;;0.60;81.84
74403;BME280;62837;51.082;13.744;2024-01-16T00:55:18;99051.47;;;0.60;81.70
74403;BME280;62837;51.082;13.744;2024-01-16T00:57:48;99049.80;;;0.58;81.74
74403;BME280;62837;51.082;13.744;2024-01-16T01:00:20;99053.05;;;0.58;81.73
74403;BME280;62837;51.082;13.744;2024-01-16T01:02:51;99052.22;;;0.59;81.88
74403;BME280;62837;51.082;13.744;2024-01-16T01:05:22;99058.69;;;0.59;81.82
74403;BME280;62837;51.082;13.744;2024-01-16T01:07:58;99066.58;;;0.61;81.49
74403;BME280;62837;51.082;13.744;2024-01-16T01:10:29;99073.45;;;0.61;81.56
74403;BME280;62837;51.082;13.744;2024-01-16T01:13:00;99070.68;;;0.62;81.22
74403;BME280;62837;51.082;13.744;2024-01-16T01:15:31;99081.54;;;0.63;80.80
74403;BME280;62837;51.082;13.744;2024-01-16T01:18:02;99080.55;;;0.65;80.77
74403;BME280;62837;51.082;13.744;2024-01-16T01:20:34;99085.66;;;0.66;80.57
74403;BME280;62837;51.082;13.744;2024-01-16T01:23:05;99086.89;;;0.65;80.17
74403;BME280;62837;51.082;13.744;2024-01-16T01:25:36;99090.94;;;0.66;79.98
74403;BME280;62837;51.082;13.744;2024-01-16T01:28:08;99091.42;;;0.67;80.45
74403;BME280;62837;51.082;13.744;2024-01-16T01:30:38;99094.63;;;0.67;80.84
74403;BME280;62837;51.082;13.744;2024-01-16T01:33:09;99095.13;;;0.66;81.25
74403;BME280;62837;51.082;13.744;2024-01-16T01:35:42;99098.01;;;0.66;81.53
74403;BME280;62837;51.082;13.744;2024-01-16T01:38:13;99102.79;;;0.67;81.25
74403;BME280;62837;51.082;13.744;2024-01-16T01:40:44;99109.25;;;0.66;81.83
74403;BME280;62837;51.082;13.744;2024-01-16T01:43:22;99114.19;;;0.67;81.67
74403;BME280;62837;51.082;13.744;2024-01-16T01:46:11;99113.29;;;0.67;81.43
74403;BME280;62837;51.082;13.744;2024-01-16T01:48:45;99107.42;;;0.66;81.44
74403;BME280;62837;51.082;13.744;2024-01-16T01:51:19;99106.45;;;0.70;81.40
74403;BME280;62837;51.082;13.744;2024-01-16T01:53:51;99108.19;;;0.68;80.99
74403;BME280;62837;51.082;13.744;2024-01-16T01:56:23;99111.06;;;0.67;80.70
74403;BME280;62837;51.082;13.744;2024-01-16T01:58:57;99113.08;;;0.66;81.07
74403;BME280;62837;51.082;13.744;2024-01-16T02:01:30;99113.45;;;0.66;80.85
74403;BME280;62837;51.082;13.744;2024-01-16T02:04:03;99111.12;;;0.65;80.75
74403;BME280;62837;51.082;13.744;2024-01-16T02:06:35;99113.07;;;0.65;80.56
74403;BME280;62837;51.082;13.744;2024-01-16T02:09:06;99123.15;;;0.66;80.64
74403;BME280;62837;51.082;13.744;2024-01-16T02:11:37;99126.67;;;0.68;80.04
74403;BME280;62837;51.082;13.744;2024-01-16T02:14:08;99128.29;;;0.79;83.98
74403;BME280;62837;51.082;13.744;2024-01-16T02:16:41;99132.04;;;1.38;88.60
74403;BME280;62837;51.082;13.744;2024-01-16T02:19:14;99126.77;;;1.52;81.53
74403;BME280;62837;51.082;13.744;2024-01-16T02:21:48;99136.84;;;1.45;79.51
74403;BME280;62837;51.082;13.744;2024-01-16T02:24:20;99138.95;;;1.35;78.19
74403;BME280;62837;51.082;13.744;2024-01-16T02:26:52;99146.66;;;1.25;78.27
74403;BME280;62837;51.082;13.744;2024-01-16T02:29:24;99151.80;;;1.20;78.71
74403;BME280;62837;51.082;13.744;2024-01-16T02:31:55;99148.27;;;1.13;78.91
74403;BME280;62837;51.082;13.744;2024-01-16T02:34:26;99151.84;;;1.09;78.94
74403;BME280;62837;51.082;13.744;2024-01-16T02:36:57;99151.45;;;1.03;78.94
74403;BME280;62837;51.082;13.744;2024-01-16T02:39:28;99150.20;;;0.97;78.94
74403;BME280;62837;51.082;13.744;2024-01-16T02:41:59;99151.50;;;0.94;79.24
74403;BME280;62837;51.082;13.744;2024-01-16T02:44:30;99156.59;;;0.90;79.53
74403;BME280;62837;51.082;13.744;2024-01-16T02:47:01;99158.25;;;0.86;79.82
74403;BME280;62837;51.082;13.744;2024-01-16T02:49:32;99174.27;;;0.83;80.03
74403;BME280;62837;51.082;13.744;2024-01-16T02:52:04;99178.78;;;0.82;80.13
74403;BME280;62837;51.082;13.744;2024-01-16T02:54:35;99178.25;;;0.80;80.69
74403;BME280;62837;51.082;13.744;2024-01-16T02:57:06;99179.06;;;0.79;80.77
74403;BME280;62837;51.082;13.744;2024-01-16T02:59:37;99174.58;;;0.78;80.37
74403;BME280;62837;51.082;13.744;2024-01-16T03:02:08;99179.67;;;0.76;80.06
74403;BME280;62837;51.082;13.744;2024-01-16T03:04:39;99175.30;;;0.75;80.42
74403;BME280;62837;51.082;13.744;2024-01-16T03:07:10;99182.73;;;0.77;79.95
74403;BME280;62837;51.082;13.744;2024-01-16T03:09:41;99190.36;;;0.77;80.03
74403;BME280;62837;51.082;13.744;2024-01-16T03:12:12;99194.80;;;0.79;79.32
74403;BME280;62837;51.082;13.744;2024-01-16T03:14:43;99195.63;;;0.79;79.05
74403;BME280;62837;51.082;13.744;2024-01-16T03:17:14;99200.13;;;0.82;78.95
74403;BME280;62837;51.082;13.744;2024-01-16T03:19:45;99190.97;;;0.75;78.63
74403;BME280;62837;51.082;13.744;2024-01-16T03:22:16;99205.61;;;0.86;78.54
74403;BME280;62837;51.082;13.744;2024-01-16T03:24:48;99211.05;;;0.89;78.01
74403;BME280;62837;51.082;13.744;2024-01-16T03:27:19;99213.10;;;0.91;77.80
74403;BME280;62837;51.082;13.744;2024-01-16T03:29:50;99210.71;;;0.92;77.94
74403;BME280;62837;51.082;13.744;2024-01-16T03:32:21;99216.81;;;0.95;77.33
74403;BME280;62837;51.082;13.744;2024-01-16T03:34:52;99215.90;;;0.97;76.87
74403;BME280;62837;51.082;13.744;2024-01-16T03:37:23;99216.73;;;0.99;76.86
74403;BME280;62837;51.082;13.744;2024-01-16T03:39:54;99221.80;;;1.01;76.64
74403;BME280;62837;51.082;13.744;2024-01-16T03:42:26;99225.34;;;1.03;76.66
74403;BME280;62837;51.082;13.744;2024-01-16T03:44:57;99226.77;;;1.04;76.66
74403;BME280;62837;51.082;13.744;2024-01-16T03:47:28;99227.86;;;1.05;76.59
74403;BME280;62837;51.082;13.744;2024-01-16T03:49:59;99236.59;;;1.05;77.03
74403;BME280;62837;51.082;13.744;2024-01-16T03:52:30;99233.78;;;1.03;77.40
74403;BME280;62837;51.082;13.744;2024-01-16T03:55:01;99237.41;;;1.03;77.97
74403;BME280;62837;51.082;13.744;2024-01-16T03:57:33;99245.11;;;1.03;78.53
74403;BME280;62837;51.082;13.744;2024-01-16T04:00:05;99246.52;;;1.06;78.67
74403;BME280;62837;51.082;13.744;2024-01-16T04:02:38;99249.17;;;1.04;78.76
74403;BME280;62837;51.082;13.744;2024-01-16T04:05:10;99250.61;;;0.99;79.17
74403;BME280;62837;51.082;13.744;2024-01-16T04:07:41;99248.27;;;0.95;79.40
74403;BME280;62837;51.082;13.744;2024-01-16T04:10:12;99250.88;;;0.92;79.15
74403;BME280;62837;51.082;13.744;2024-01-16T04:12:42;99240.55;;;0.91;79.49
74403;BME280;62837;51.082;13.744;2024-01-16T04:15:13;99246.98;;;0.89;79.26
74403;BME280;62837;51.082;13.744;2024-01-16T04:17:44;99253.03;;;0.86;79.33
74403;BME280;62837;51.082;13.744;2024-01-16T04:20:15;99262.48;;;0.86;79.32
74403;BME280;62837;51.082;13.744;2024-01-16T04:22:46;99267.80;;;0.87;79.98
74403;BME280;62837;51.082;13.744;2024-01-16T04:25:17;99275.72;;;0.87;80.28
74403;BME280;62837;51.082;13.744;2024-01-16T04:27:48;99274.48;;;0.85;80.09
74403;BME280;62837;51.082;13.744;2024-01-16T04:30:20;99272.57;;;0.85;80.45
74403;BME280;62837;51.082;13.744;2024-01-16T04:32:51;99270.77;;;0.84;80.49
74403;BME280;62837;51.082;13.744;2024-01-16T04:35:22;99276.10;;;0.83;80.07
74403;BME280;62837;51.082;13.744;2024-01-16T04:37:53;99278.89;;;0.82;80.49
74403;BME280;62837;51.082;13.744;2024-01-16T04:40:24;99277.83;;;0.85;80.90
74403;BME280;62837;51.082;13.744;2024-01-16T04:42:54;99279.23;;;0.89;80.94
74403;BME280;62837;51.082;13.744;2024-01-16T04:45:25;99276.73;;;0.90;80.80
74403;BME280;62837;51.082;13.744;2024-01-16T04:47:56;99276.38;;;0.91;80.60
74403;BME280;62837;51.082;13.744;2024-01-16T04:50:27;99279.29;;;0.92;80.08
74403;BME280;62837;51.082;13.744;2024-01-16T04:53:02;99278.90;;;0.93;79.70
74403;BME280;62837;51.082;13.744;2024-01-16T04:55:33;99281.61;;;0.93;79.16
74403;BME280;62837;51.082;13.744;2024-01-16T04:58:04;99280.48;;;0.94;79.05
74403;BME280;62837;51.082;13.744;2024-01-16T05:00:35;99278.94;;;0.94;78.17
74403;BME280;62837;51.082;13.744;2024-01-16T05:03:07;99283.27;;;0.95;77.81
74403;BME280;62837;51.082;13.744;2024-01-16T05:05:38;99281.44;;;0.95;77.00
74403;BME280;62837;51.082;13.744;2024-01-16T05:08:09;99285.31;;;0.96;77.05
74403;BME280;62837;51.082;13.744;2024-01-16T05:10:40;99284.73;;;0.98;76.55
74403;BME280;62837;51.082;13.744;2024-01-16T05:13:14;99276.38;;;0.99;76.44
74403;BME280;62837;51.082;13.744;2024-01-16T05:15:45;99272.91;;;1.00;76.33
74403;BME280;62837;51.082;13.744;2024-01-16T05:18:15;99278.22;;;0.99;76.27
74403;BME280;62837;51.082;13.744;2024-01-16T05:20:46;99286.95;;;1.00;76.68
74403;BME280;62837;51.082;13.744;2024-01-16T05:23:17;99288.80;;;1.02;76.29
74403;BME280;62837;51.082;13.744;2024-01-16T05:25:49;99296.92;;;1.01;75.62
74403;BME280;62837;51.082;13.744;2024-01-16T05:28:19;99297.09;;;1.02;75.84
74403;BME280;62837;51.082;13.744;2024-01-16T05:30:50;99307.77;;;1.03;75.28
74403;BME280;62837;51.082;13.744;2024-01-16T05:33:21;99306.83;;;1.03;74.74
74403;BME280;62837;51.082;13.744;2024-01-16T05:35:52;99309.58;;;1.03;74.81
74403;BME280;62837;51.082;13.744;2024-01-16T05:38:24;99315.78;;;1.02;75.05
74403;BME280;62837;51.082;13.744;2024-01-16T05:40:55;99313.46;;;1.05;75.07
74403;BME280;62837;51.082;13.744;2024-01-16T05:43:26;99317.45;;;1.06;74.61
74403;BME280;62837;51.082;13.744;2024-01-16T05:45:58;99318.31;;;1.07;74.41
74403;BME280;62837;51.082;13.744;2024-01-16T05:48:30;99319.27;;;1.08;74.31
74403;BME280;62837;51.082;13.744;2024-01-16T05:51:01;99327.05;;;1.08;74.05
74403;BME280;62837;51.082;13.744;2024-01-16T05:53:32;99324.77;;;1.09;74.43
74403;BME280;62837;51.082;13.744;2024-01-16T05:56:04;99325.13;;;1.09;75.10
74403;BME280;62837;51.082;13.744;2024-01-16T05:58:35;99330.05;;;1.07;74.98
74403;BME280;62837;51.082;13.744;2024-01-16T06:01:08;99333.30;;;1.06;75.14
74403;BME280;62837;51.082;13.744;2024-01-16T06:03:43;99333.49;;;1.02;74.65
74403;BME280;62837;51.082;13.744;2024-01-16T06:06:16;99341.09;;;1.08;74.25
74403;BME280;62837;51.082;13.744;2024-01-16T06:08:48;99348.55;;;1.07;74.59
74403;BME280;62837;51.082;13.744;2024-01-16T06:11:19;99350.68;;;1.06;74.45
74403;BME280;62837;51.082;13.744;2024-01-16T06:13:50;99355.30;;;1.06;74.81
74403;BME280;62837;51.082;13.744;2024-01-16T06:16:20;99364.80;;;1.07;75.17
74403;BME280;62837;51.082;13.744;2024-01-16T06:18:51;99366.50;;;1.06;75.55
74403;BME280;62837;51.082;13.744;2024-01-16T06:21:22;99366.96;;;1.02;76.34
74403;BME280;62837;51.082;13.744;2024-01-16T06:23:53;99377.64;;;0.96;77.21
74403;BME280;62837;51.082;13.744;2024-01-16T06:26:24;99374.99;;;0.94;77.48
74403;BME280;62837;51.082;13.744;2024-01-16T06:28:55;99375.55;;;0.92;77.76
74403;BME280;62837;51.082;13.744;2024-01-16T06:31:26;99373.71;;;0.92;77.93
74403;BME280;62837;51.082;13.744;2024-01-16T06:33:57;99377.63;;;0.92;78.04
74403;BME280;62837;51.082;13.744;2024-01-16T06:36:28;99377.42;;;0.92;77.96
74403;BME280;62837;51.082;13.744;2024-01-16T06:38:59;99385.00;;;0.96;77.95
74403;BME280;62837;51.082;13.744;2024-01-16T06:41:30;99387.83;;;0.98;78.17
74403;BME280;62837;51.082;13.744;2024-01-16T06:44:01;99390.40;;;1.03;78.62
74403;BME280;62837;51.082;13.744;2024-01-16T06:46:32;99400.83;;;1.05;77.61
74403;BME280;62837;51.082;13.744;2024-01-16T06:49:04;99398.52;;;1.02;78.19
74403;BME280;62837;51.082;13.744;2024-01-16T06:51:36;99402.34;;;0.99;78.60
74403;BME280;62837;51.082;13.744;2024-01-16T06:54:07;99407.42;;;0.99;78.35
74403;BME280;62837;51.082;13.744;2024-01-16T06:56:37;99411.44;;;0.98;78.01
74403;BME280;62837;51.082;13.744;2024-01-16T06:59:08;99417.48;;;0.94;77.98
74403;BME280;62837;51.082;13.744;2024-01-16T07:01:40;99422.18;;;0.91;79.08
74403;BME280;62837;51.082;13.744;2024-01-16T07:04:11;99424.72;;;0.85;79.75
74403;BME280;62837;51.082;13.744;2024-01-16T07:06:44;99430.88;;;0.81;79.74
74403;BME280;62837;51.082;13.744;2024-01-16T07:09:15;99432.29;;;0.82;80.23
74403;BME280;62837;51.082;13.744;2024-01-16T07:11:47;99437.12;;;0.81;79.77
74403;BME280;62837;51.082;13.744;2024-01-16T07:14:18;99436.79;;;0.97;85.23
74403;BME280;62837;51.082;13.744;2024-01-16T07:16:50;99434.76;;;1.97;93.21
74403;BME280;62837;51.082;13.744;2024-01-16T07:19:21;99432.13;;;2.39;82.78
74403;BME280;62837;51.082;13.744;2024-01-16T07:21:52;99441.77;;;2.29;77.52
74403;BME280;62837;51.082;13.744;2024-01-16T07:24:23;99443.27;;;2.07;74.90
74403;BME280;62837;51.082;13.744;2024-01-16T07:26:54;99450.34;;;1.84;73.91
74403;BME280;62837;51.082;13.744;2024-01-16T07:29:25;99458.36;;;1.66;73.31
74403;BME280;62837;51.082;13.744;2024-01-16T07:31:56;99457.85;;;1.52;73.77
74403;BME280;62837;51.082;13.744;2024-01-16T07:34:27;99466.81;;;1.42;73.65
74403;BME280;62837;51.082;13.744;2024-01-16T07:36:58;99475.15;;;1.37;73.83
74403;BME280;62837;51.082;13.744;2024-01-16T07:39:29;99476.30;;;1.34;73.59
74403;BME280;62837;51.082;13.744;2024-01-16T07:42:00;99469.49;;;1.26;73.20
74403;BME280;62837;51.082;13.744;2024-01-16T07:44:31;99482.11;;;1.26;73.19
74403;BME280;62837;51.082;13.744;2024-01-16T07:47:02;99489.78;;;1.21;72.65
74403;BME280;62837;51.082;13.744;2024-01-16T07:49:33;99492.33;;;1.15;72.23
74403;BME280;62837;51.082;13.744;2024-01-16T07:52:05;99500.77;;;1.11;72.19
74403;BME280;62837;51.082;13.744;2024-01-16T07:54:36;99502.77;;;1.09;71.73
74403;BME280;62837;51.082;13.744;2024-01-16T07:57:07;99507.30;;;1.08;71.64
74403;BME280;62837;51.082;13.744;2024-01-16T07:59:37;99508.59;;;1.08;71.88
74403;BME280;62837;51.082;13.744;2024-01-16T08:02:10;99513.84;;;1.07;71.61
74403;BME280;62837;51.082;13.744;2024-01-16T08:04:41;99516.17;;;1.06;71.57
74403;BME280;62837;51.082;13.744;2024-01-16T08:07:12;99519.30;;;1.06;72.08
74403;BME280;62837;51.082;13.744;2024-01-16T08:09:43;99517.34;;;1.07;71.86
74403;BME280;62837;51.082;13.744;2024-01-16T08:12:14;99521.50;;;1.07;72.15
74403;BME280;62837;51.082;13.744;2024-01-16T08:14:45;99527.83;;;1.07;72.12
74403;BME280;62837;51.082;13.744;2024-01-16T08:17:16;99527.87;;;1.07;71.70
74403;BME280;62837;51.082;13.744;2024-01-16T08:19:47;99530.95;;;1.07;72.11
74403;BME280;62837;51.082;13.744;2024-01-16T08:22:18;99537.16;;;1.09;71.79
74403;BME280;62837;51.082;13.744;2024-01-16T08:24:49;99536.75;;;1.12;71.95
74403;BME280;62837;51.082;13.744;2024-01-16T08:27:20;99534.20;;;1.18;72.22
74403;BME280;62837;51.082;13.744;2024-01-16T08:29:51;99535.34;;;1.20;71.67
74403;BME280;62837;51.082;13.744;2024-01-16T08:32:22;99536.09;;;1.21;71.63
74403;BME280;62837;51.082;13.744;2024-01-16T08:34:53;99534.93;;;1.23;71.19
74403;BME280;62837;51.082;13.744;2024-01-16T08:37:24;99538.34;;;1.28;71.28
74403;BME280;62837;51.082;13.744;2024-01-16T08:39:56;99538.90;;;1.32;70.52
74403;BME280;62837;51.082;13.744;2024-01-16T08:42:27;99538.40;;;1.32;70.90
74403;BME280;62837;51.082;13.744;2024-01-16T08:44:58;99537.52;;;1.33;70.66
74403;BME280;62837;51.082;13.744;2024-01-16T08:47:29;99540.17;;;1.35;70.88
74403;BME280;62837;51.082;13.744;2024-01-16T08:50:00;99540.10;;;1.38;70.73
74403;BME280;62837;51.082;13.744;2024-01-16T08:52:31;99545.90;;;1.41;70.31
74403;BME280;62837;51.082;13.744;2024-01-16T08:55:03;99546.90;;;1.42;69.79
74403;BME280;62837;51.082;13.744;2024-01-16T08:57:34;99551.11;;;1.43;69.61
74403;BME280;62837;51.082;13.744;2024-01-16T09:00:08;99553.53;;;1.42;69.37
74403;BME280;62837;51.082;13.744;2024-01-16T09:02:39;99556.86;;;1.43;69.92
74403;BME280;62837;51.082;13.744;2024-01-16T09:05:10;99562.52;;;1.49;69.90
74403;BME280;62837;51.082;13.744;2024-01-16T09:07:43;99566.70;;;1.53;69.67
74403;BME280;62837;51.082;13.744;2024-01-16T09:10:14;99571.20;;;1.57;69.40
74403;BME280;62837;51.082;13.744;2024-01-16T09:12:45;99573.48;;;1.60;69.14
74403;BME280;62837;51.082;13.744;2024-01-16T09:15:16;99577.38;;;1.72;72.29
74403;BME280;62837;51.082;13.744;2024-01-16T09:17:47;99576.46;;;1.80;69.41
74403;BME280;62837;51.082;13.744;2024-01-16T09:20:18;99578.45;;;1.83;68.77
74403;BME280;62837;51.082;13.744;2024-01-16T09:22:49;99582.33;;;1.86;68.32
74403;BME280;62837;51.082;13.744;2024-01-16T09:25:20;99576.77;;;1.88;67.52
74403;BME280;62837;51.082;13.744;2024-01-16T09:27:53;99583.27;;;1.88;67.40
74403;BME280;62837;51.082;13.744;2024-01-16T09:30:24;99585.08;;;1.88;67.46
74403;BME280;62837;51.082;13.744;2024-01-16T09:32:55;99583.77;;;1.88;67.85
74403;BME280;62837;51.082;13.744;2024-01-16T09:35:26;99582.45;;;1.89;67.49
74403;BME280;62837;51.082;13.744;2024-01-16T09:37:57;99583.75;;;1.85;67.22
74403;BME280;62837;51.082;13.744;2024-01-16T09:40:29;99588.10;;;1.85;67.11
74403;BME280;62837;51.082;13.744;2024-01-16T09:42:59;99588.89;;;1.89;67.78
74403;BME280;62837;51.082;13.744;2024-01-16T09:45:30;99586.47;;;1.95;67.05
74403;BME280;62837;51.082;13.744;2024-01-16T09:48:05;99588.41;;;2.01;66.80
74403;BME280;62837;51.082;13.744;2024-01-16T09:50:38;99587.64;;;2.15;67.20
74403;BME280;62837;51.082;13.744;2024-01-16T09:53:09;99592.77;;;2.32;67.70
74403;BME280;62837;51.082;13.744;2024-01-16T09:55:40;99592.40;;;2.50;66.98
74403;BME280;62837;51.082;13.744;2024-01-16T09:58:14;99588.80;;;2.65;66.29
74403;BME280;62837;51.082;13.744;2024-01-16T10:00:46;99589.06;;;2.77;65.61
74403;BME280;62837;51.082;13.744;2024-01-16T10:03:18;99590.15;;;2.87;65.58
74403;BME280;62837;51.082;13.744;2024-01-16T10:05:50;99588.15;;;2.93;64.96
74403;BME280;62837;51.082;13.744;2024-01-16T10:08:21;99589.64;;;2.94;64.10
74403;BME280;62837;51.082;13.744;2024-01-16T10:10:52;99585.58;;;2.92;63.94
74403;BME280;62837;51.082;13.744;2024-01-16T10:13:23;99585.01;;;2.89;63.73
74403;BME280;62837;51.082;13.744;2024-01-16T10:15:55;99587.56;;;2.93;63.95
74403;BME280;62837;51.082;13.744;2024-01-16T10:18:28;99588.72;;;2.96;63.47
74403;BME280;62837;51.082;13.744;2024-01-16T10:21:00;99591.09;;;2.95;63.05
74403;BME280;62837;51.082;13.744;2024-01-16T10:23:32;99592.94;;;2.91;63.35
74403;BME280;62837;51.082;13.744;2024-01-16T10:26:11;99597.21;;;2.87;63.21
74403;BME280;62837;51.082;13.744;2024-01-16T10:28:44;99601.72;;;2.83;63.01
74403;BME280;62837;51.082;13.744;2024-01-16T10:31:15;99610.48;;;2.84;62.94
74403;BME280;62837;51.082;13.744;2024-01-16T10:33:47;99608.45;;;2.89;63.64
74403;BME280;62837;51.082;13.744;2024-01-16T10:36:18;99603.95;;;2.98;62.97
74403;BME280;62837;51.082;13.744;2024-01-16T10:38:50;99608.68;;;2.94;61.95
74403;BME280;62837;51.082;13.744;2024-01-16T10:41:27;99608.36;;;2.93;62.10
74403;BME280;62837;51.082;13.744;2024-01-16T10:44:06;99610.37;;;2.95;61.96
74403;BME280;62837;51.082;13.744;2024-01-16T10:46:37;99605.41;;;3.00;61.94
74403;BME280;62837;51.082;13.744;2024-01-16T10:49:09;99605.91;;;3.05;61.60
74403;BME280;62837;51.082;13.744;2024-01-16T10:51:41;99603.52;;;3.12;61.76
74403;BME280;62837;51.082;13.744;2024-01-16T10:54:14;99602.54;;;3.22;60.79
74403;BME280;62837;51.082;13.744;2024-01-16T10:56:46;99600.27;;;3.25;60.22
74403;BME280;62837;51.082;13.744;2024-01-16T10:59:21;99597.65;;;3.24;59.77
74403;BME280;62837;51.082;13.744;2024-01-16T11:01:57;99602.60;;;3.20;60.76
74403;BME280;62837;51.082;13.744;2024-01-16T11:04:30;99600.16;;;3.22;60.28
74403;BME280;62837;51.082;13.744;2024-01-16T11:07:02;99602.28;;;3.25;60.24
74403;BME280;62837;51.082;13.744;2024-01-16T11:09:35;99595.20;;;3.24;60.53
74403;BME280;62837;51.082;13.744;2024-01-16T11:12:08;99597.90;;;3.19;60.64
74403;BME280;62837;51.082;13.744;2024-01-16T11:14:39;99596.88;;;3.14;60.79
74403;BME280;62837;51.082;13.744;2024-01-16T11:17:11;99594.48;;;3.10;60.88
74403;BME280;62837;51.082;13.744;2024-01-16T11:19:47;99595.19;;;3.10;61.03
74403;BME280;62837;51.082;13.744;2024-01-16T11:22:23;99600.48;;;3.15;61.14
74403;BME280;62837;51.082;13.744;2024-01-16T11:27:53;99593.29;;;3.22;60.68
74403;BME280;62837;51.082;13.744;2024-01-16T11:30:32;99596.59;;;3.17;60.92
74403;BME280;62837;51.082;13.744;2024-01-16T11:33:05;99593.65;;;3.19;61.14
74403;BME280;62837;51.082;13.744;2024-01-16T11:35:37;99597.55;;;3.15;60.16
74403;BME280;62837;51.082;13.744;2024-01-16T11:38:10;99598.11;;;3.13;60.52
74403;BME280;62837;51.082;13.744;2024-01-16T11:40:46;99594.70;;;3.12;60.54
74403;BME280;62837;51.082;13.744;2024-01-16T11:43:38;99596.47;;;3.10;60.59
74403;BME280;62837;51.082;13.744;2024-01-16T11:46:09;99595.17;;;3.07;60.14
74403;BME280;62837;51.082;13.744;2024-01-16T11:48:40;99591.40;;;3.05;60.55
74403;BME280;62837;51.082;13.744;2024-01-16T11:51:26;99589.35;;;3.02;61.00
74403;BME280;62837;51.082;13.744;2024-01-16T11:53:56;99588.55;;;3.03;60.41
74403;BME280;62837;51.082;13.744;2024-01-16T11:56:46;99586.20;;;3.01;60.29
74403;BME280;62837;51.082;13.744;2024-01-16T11:59:47;99586.03;;;3.00;60.22
74403;BME280;62837;51.082;13.744;2024-01-16T12:02:38;99589.00;;;3.03;60.21
74403;BME280;62837;51.082;13.744;2024-01-16T12:05:13;99586.88;;;3.03;60.12
74403;BME280;62837;51.082;13.744;2024-01-16T12:07:51;99586.02;;;3.04;60.30
74403;BME280;62837;51.082;13.744;2024-01-16T12:10:22;99584.04;;;3.07;60.32
74403;BME280;62837;51.082;13.744;2024-01-16T12:13:00;99587.46;;;3.07;60.03
74403;BME280;62837;51.082;13.744;2024-01-16T12:15:35;99590.56;;;3.06;60.20
74403;BME280;62837;51.082;13.744;2024-01-16T12:18:07;99589.77;;;3.09;60.09
74403;BME280;62837;51.082;13.744;2024-01-16T12:20:55;99586.13;;;3.14;59.95
74403;BME280;62837;51.082;13.744;2024-01-16T12:23:26;99588.09;;;3.16;59.66
74403;BME280;62837;51.082;13.744;2024-01-16T12:25:57;99583.24;;;3.20;60.06
74403;BME280;62837;51.082;13.744;2024-01-16T12:28:33;99577.27;;;3.19;59.60
74403;BME280;62837;51.082;13.744;2024-01-16T12:31:04;99580.58;;;3.26;59.43
74403;BME280;62837;51.082;13.744;2024-01-16T12:33:35;99581.70;;;3.29;59.73
74403;BME280;62837;51.082;13.744;2024-01-16T12:36:07;99578.88;;;3.28;59.24
74403;BME280;62837;51.082;13.744;2024-01-16T12:38:40;99583.33;;;3.21;59.14
74403;BME280;62837;51.082;13.744;2024-01-16T12:41:12;99578.45;;;3.20;59.50
74403;BME280;62837;51.082;13.744;2024-01-16T12:43:43;99581.20;;;3.19;59.50
74403;BME280;62837;51.082;13.744;2024-01-16T12:46:16;99584.14;;;3.15;59.68
74403;BME280;62837;51.082;13.744;2024-01-16T12:48:48;99582.75;;;3.12;59.71
74403;BME280;62837;51.082;13.744;2024-01-16T12:51:31;99578.06;;;3.09;60.26
74403;BME280;62837;51.082;13.744;2024-01-16T12:54:15;99576.48;;;3.09;59.58
74403;BME280;62837;51.082;13.744;2024-01-16T12:56:47;99579.24;;;3.05;60.41
74403;BME280;62837;51.082;13.744;2024-01-16T12:59:18;99573.08;;;3.04;60.30
74403;BME280;62837;51.082;13.744;2024-01-16T13:01:49;99570.69;;;3.01;60.05
74403;BME280;62837;51.082;13.744;2024-01-16T13:04:20;99568.34;;;2.97;59.62
74403;BME280;62837;51.082;13.744;2024-01-16T13:06:52;99571.08;;;2.94;59.77
74403;BME280;62837;51.082;13.744;2024-01-16T13:09:31;99566.22;;;2.93;59.78
74403;BME280;62837;51.082;13.744;2024-01-16T13:12:02;99564.61;;;2.92;60.14
74403;BME280;62837;51.082;13.744;2024-01-16T13:14:33;99565.66;;;2.96;60.60
74403;BME280;62837;51.082;13.744;2024-01-16T13:17:06;99562.67;;;3.02;60.08
74403;BME280;62837;51.082;13.744;2024-01-16T13:19:38;99561.61;;;3.03;59.83
74403;BME280;62837;51.082;13.744;2024-01-16T13:22:11;99563.23;;;3.03;60.15
74403;BME280;62837;51.082;13.744;2024-01-16T13:24:42;99565.21;;;3.04;60.10
74403;BME280;62837;51.082;13.744;2024-01-16T13:27:26;99566.92;;;3.05;60.15
74403;BME280;62837;51.082;13.744;2024-01-16T13:29:59;99565.10;;;3.08;60.28